createdAt,value
2019-06-01T00:01:00.420Z,0.67
2019-06-01T00:03:29.111Z,0.67
2019-06-01T00:05:57.978Z,0.63
2019-06-01T00:08:26.679Z,0.60
2019-06-01T00:10:55.375Z,0.87
2019-06-01T00:13:24.071Z,0.50
2019-06-01T00:15:52.763Z,0.70
2019-06-01T00:18:21.489Z,0.60
2019-06-01T00:20:50.709Z,0.60
2019-06-01T00:23:19.555Z,0.70
2019-06-01T00:25:48.687Z,0.60
2019-06-01T00:28:17.448Z,0.80
2019-06-01T00:30:46.067Z,0.53
2019-06-01T00:33:14.691Z,0.60
2019-06-01T00:35:43.559Z,0.50
2019-06-01T00:38:12.287Z,0.57
2019-06-01T00:40:41.693Z,0.67
2019-06-01T00:43:10.384Z,0.60
2019-06-01T00:45:39.076Z,0.60
2019-06-01T00:48:07.955Z,0.50
2019-06-01T00:50:36.574Z,0.70
2019-06-01T00:53:05.268Z,0.70
2019-06-01T00:55:33.963Z,0.53
2019-06-01T00:58:02.723Z,0.97
2019-06-01T01:00:43.242Z,0.70
2019-06-01T01:03:01.799Z,0.47
2019-06-01T01:05:30.683Z,0.77
2019-06-01T01:07:59.379Z,0.70
2019-06-01T01:10:28.142Z,0.60
2019-06-01T01:13:01.483Z,0.53
2019-06-01T01:15:30.174Z,0.60
2019-06-01T01:17:58.881Z,0.73
2019-06-01T01:20:27.663Z,0.70
2019-06-01T01:22:56.496Z,0.60
2019-06-01T01:25:25.134Z,0.87
2019-06-01T01:27:54.818Z,0.63
2019-06-01T01:30:23.550Z,0.70
2019-06-01T01:32:53.495Z,0.93
2019-06-01T01:35:22.347Z,2.47
2019-06-01T01:37:51.937Z,0.70
2019-06-01T01:40:20.804Z,0.60
2019-06-01T01:42:50.562Z,0.67
2019-06-01T01:45:19.403Z,0.60
2019-06-01T01:47:49.423Z,0.70
2019-06-01T01:50:21.962Z,0.53
2019-06-01T01:52:50.674Z,0.90
2019-06-01T01:55:19.541Z,0.50
2019-06-01T01:57:48.243Z,0.90
2019-06-01T02:00:19.919Z,0.50
2019-06-01T02:02:48.664Z,0.60
2019-06-01T02:05:17.346Z,0.60
2019-06-01T02:07:46.052Z,0.70
2019-06-01T02:10:14.843Z,0.70
2019-06-01T02:12:43.535Z,0.67
2019-06-01T02:15:12.236Z,1.10
2019-06-01T02:17:40.932Z,0.60
2019-06-01T02:20:09.698Z,0.80
2019-06-01T02:22:38.322Z,0.77
2019-06-01T02:25:07.219Z,0.70
2019-06-01T02:27:35.907Z,0.70
2019-06-01T02:30:07.311Z,0.47
2019-06-01T02:32:36.004Z,0.50
2019-06-01T02:35:06.399Z,0.57
2019-06-01T02:37:35.092Z,0.50
2019-06-01T02:40:05.550Z,0.73
2019-06-01T02:42:34.348Z,0.70
2019-06-01T02:45:03.654Z,0.70
2019-06-01T02:47:32.800Z,0.60
2019-06-01T02:50:01.492Z,0.60
2019-06-01T02:52:30.186Z,0.70
2019-06-01T02:54:59.644Z,0.60
2019-06-01T02:57:28.375Z,0.60
2019-06-01T02:59:58.359Z,0.73
2019-06-01T03:02:27.303Z,0.70
2019-06-01T03:04:57.057Z,0.60
2019-06-01T03:07:29.077Z,0.70
2019-06-01T03:10:00.859Z,0.60
2019-06-01T03:12:50.467Z,0.53
2019-06-01T03:15:19.240Z,0.60
2019-06-01T03:17:49.029Z,0.70
2019-06-01T03:20:19.238Z,0.87
2019-06-01T03:22:50.922Z,0.70
2019-06-01T03:25:19.623Z,0.77
2019-06-01T03:27:49.783Z,0.60
2019-06-01T03:30:21.424Z,0.53
2019-06-01T03:32:50.180Z,0.70
2019-06-01T03:35:18.951Z,0.90
2019-06-01T03:37:47.739Z,0.50
2019-06-01T03:40:23.856Z,0.60
2019-06-01T03:42:46.804Z,0.80
2019-06-01T03:45:15.931Z,1.13
2019-06-01T03:47:44.619Z,0.60
2019-06-01T03:50:13.363Z,0.80
2019-06-01T03:52:42.007Z,0.60
2019-06-01T03:55:11.818Z,1.30
2019-06-01T03:57:40.679Z,0.70
2019-06-01T04:00:09.540Z,0.73
2019-06-01T04:02:38.271Z,0.67
2019-06-01T04:05:07.422Z,0.50
2019-06-01T04:07:38.899Z,0.70
2019-06-01T04:10:07.968Z,0.80
2019-06-01T04:12:36.793Z,0.70
2019-06-01T04:15:13.106Z,0.60
2019-06-01T04:17:39.965Z,0.77
2019-06-01T04:20:10.098Z,0.63
2019-06-01T04:22:38.920Z,0.73
2019-06-01T04:25:08.292Z,0.60
2019-06-01T04:27:37.081Z,0.60
2019-06-01T04:30:07.592Z,0.70
2019-06-01T04:32:48.890Z,0.90
2019-06-01T04:35:07.422Z,1.00
2019-06-01T04:37:36.163Z,1.20
2019-06-01T04:40:09.526Z,0.83
2019-06-01T04:42:38.377Z,0.70
2019-06-01T04:45:09.044Z,0.90
2019-06-01T04:47:37.916Z,0.63
2019-06-01T04:50:06.777Z,0.70
2019-06-01T04:52:35.513Z,0.57
2019-06-01T04:55:09.085Z,0.70
2019-06-01T04:57:37.828Z,0.60
2019-06-01T05:00:23.478Z,0.77
2019-06-01T05:02:40.139Z,0.70
2019-06-01T05:05:09.314Z,0.70
2019-06-01T05:07:38.125Z,0.70
2019-06-01T05:10:07.620Z,0.93
2019-06-01T05:12:36.395Z,0.80
2019-06-01T05:15:13.728Z,0.87
2019-06-01T05:17:42.739Z,1.00
2019-06-01T05:20:12.835Z,1.00
2019-06-01T05:22:41.533Z,0.80
2019-06-01T05:25:11.900Z,0.70
2019-06-01T05:27:40.696Z,0.90
2019-06-01T05:30:11.451Z,0.87
2019-06-01T05:32:40.243Z,0.70
2019-06-01T05:35:09.653Z,0.90
2019-06-01T05:37:38.431Z,0.80
2019-06-01T05:40:10.621Z,0.80
2019-06-01T05:42:39.295Z,0.67
2019-06-01T05:45:09.419Z,0.80
2019-06-01T05:47:38.072Z,0.80
2019-06-01T05:50:07.569Z,0.93
2019-06-01T05:52:36.563Z,0.80
2019-06-01T05:55:07.121Z,1.00
2019-06-01T05:57:35.816Z,0.90
2019-06-01T06:00:06.653Z,0.80
2019-06-01T06:02:35.420Z,0.93
2019-06-01T06:05:06.202Z,0.90
2019-06-01T06:07:34.999Z,1.40
2019-06-01T06:10:04.895Z,1.17
2019-06-01T06:12:33.583Z,1.20
2019-06-01T06:15:02.317Z,1.37
2019-06-01T06:17:30.976Z,1.27
2019-06-01T06:19:59.677Z,1.13
2019-06-01T06:22:28.374Z,1.20
2019-06-01T06:24:57.103Z,1.20
2019-06-01T06:27:25.803Z,1.50
2019-06-01T06:29:54.496Z,1.30
2019-06-01T06:32:23.491Z,1.40
2019-06-01T06:34:52.204Z,1.60
2019-06-01T06:37:21.882Z,1.10
2019-06-01T06:39:50.708Z,1.60
2019-06-01T06:42:20.352Z,1.40
2019-06-01T06:44:49.040Z,1.70
2019-06-01T06:47:18.724Z,1.57
2019-06-01T06:49:47.580Z,1.70
2019-06-01T06:52:17.352Z,1.50
2019-06-01T06:54:46.174Z,1.70
2019-06-01T06:57:15.870Z,1.83
2019-06-01T06:59:44.683Z,1.53
2019-06-01T07:02:13.376Z,1.90
2019-06-01T07:04:42.076Z,1.60
2019-06-01T07:07:10.784Z,2.07
2019-06-01T07:09:39.483Z,1.67
2019-06-01T07:12:08.176Z,1.60
2019-06-01T07:14:36.875Z,2.03
2019-06-01T07:17:05.683Z,2.00
2019-06-01T07:19:34.385Z,2.00
2019-06-01T07:22:03.080Z,2.33
2019-06-01T07:24:32.133Z,2.60
2019-06-01T07:27:00.892Z,2.63
2019-06-01T07:29:29.618Z,2.23
2019-06-01T07:31:58.247Z,2.33
2019-06-01T07:34:38.094Z,2.30
2019-06-01T07:36:57.585Z,2.17
2019-06-01T07:39:26.829Z,2.20
2019-06-01T07:41:55.706Z,2.40
2019-06-01T07:44:25.044Z,2.83
2019-06-01T07:46:53.883Z,2.60
2019-06-01T07:49:41.887Z,2.40
2019-06-01T07:52:13.321Z,2.00
2019-06-01T07:54:40.939Z,1.97
2019-06-01T07:57:09.707Z,1.77
2019-06-01T07:59:38.410Z,1.70
2019-06-01T08:02:07.915Z,1.70
2019-06-01T08:04:52.463Z,2.07
2019-06-01T08:07:07.176Z,2.20
2019-06-01T08:09:35.875Z,1.73
2019-06-01T08:12:04.581Z,2.08
2019-06-01T08:14:33.278Z,1.80
2019-06-01T08:17:01.976Z,2.47
2019-06-01T08:19:30.671Z,2.00
2019-06-01T08:21:59.375Z,1.90
2019-06-01T08:24:28.329Z,2.12
2019-06-01T08:26:57.179Z,2.10
2019-06-01T08:29:26.627Z,2.33
2019-06-01T08:31:56.003Z,2.40
2019-06-01T08:34:24.796Z,2.47
2019-06-01T08:36:53.477Z,2.17
2019-06-01T08:39:23.511Z,2.55
2019-06-01T08:41:52.285Z,2.33
2019-06-01T08:44:20.989Z,2.22
2019-06-01T08:46:49.688Z,2.50
2019-06-01T08:49:18.397Z,2.37
2019-06-01T08:51:47.091Z,2.30
2019-06-01T08:54:15.794Z,1.90
2019-06-01T08:56:44.493Z,2.00
2019-06-01T08:59:13.195Z,2.22
2019-06-01T09:01:41.900Z,1.90
2019-06-01T09:04:10.671Z,1.95
2019-06-01T09:06:39.379Z,2.25
2019-06-01T09:09:11.660Z,2.20
2019-06-01T09:11:39.025Z,2.08
2019-06-01T09:14:07.727Z,2.10
2019-06-01T09:16:36.423Z,2.20
2019-06-01T09:19:05.125Z,2.10
2019-06-01T09:21:33.828Z,2.33
2019-06-01T09:24:02.523Z,2.22
2019-06-01T09:26:31.975Z,2.25
2019-06-01T09:29:00.827Z,2.22
2019-06-01T09:31:30.348Z,2.17
2019-06-01T09:33:59.751Z,2.10
2019-06-01T09:36:28.446Z,2.75
2019-06-01T09:38:57.151Z,1.98
2019-06-01T09:41:26.426Z,2.25
2019-06-01T09:43:55.154Z,1.98
2019-06-01T09:46:23.851Z,2.30
2019-06-01T09:48:52.552Z,1.92
2019-06-01T09:51:21.319Z,2.20
2019-06-01T09:53:50.025Z,2.40
2019-06-01T09:56:18.736Z,2.10
2019-06-01T09:58:47.425Z,2.40
2019-06-01T10:01:16.120Z,2.20
2019-06-01T10:03:44.826Z,2.20
2019-06-01T10:06:14.387Z,2.70
2019-06-01T10:08:43.122Z,2.65
2019-06-01T10:11:32.501Z,2.30
2019-06-01T10:14:01.253Z,2.90
2019-06-01T10:16:30.472Z,2.50
2019-06-01T10:18:59.248Z,2.50
2019-06-01T10:21:27.954Z,2.58
2019-06-01T10:23:56.655Z,2.72
2019-06-01T10:26:25.347Z,2.83
2019-06-01T10:28:54.107Z,2.50
2019-06-01T10:31:22.800Z,2.83
2019-06-01T10:33:52.053Z,2.85
2019-06-01T10:36:21.382Z,2.65
2019-06-01T10:38:50.405Z,3.05
2019-06-01T10:41:19.109Z,2.80
2019-06-01T10:43:47.728Z,3.00
2019-06-01T10:46:16.435Z,3.10
2019-06-01T10:48:45.131Z,3.45
2019-06-01T10:51:13.840Z,3.65
2019-06-01T10:53:43.754Z,3.58
2019-06-01T10:56:12.571Z,3.60
2019-06-01T10:58:58.814Z,4.00
2019-06-01T11:01:11.620Z,4.15
2019-06-01T11:03:40.766Z,3.95
2019-06-01T11:06:09.519Z,3.80
2019-06-01T11:08:39.011Z,4.20
2019-06-01T11:11:07.831Z,4.10
2019-06-01T11:13:37.081Z,4.45
2019-06-01T11:16:05.842Z,3.90
2019-06-01T11:18:35.285Z,4.17
2019-06-01T11:21:04.223Z,4.10
2019-06-01T11:23:33.269Z,4.33
2019-06-01T11:26:02.027Z,4.10
2019-06-01T11:28:30.925Z,4.67
2019-06-01T11:30:59.732Z,4.92
2019-06-01T11:33:28.488Z,3.70
2019-06-01T11:35:57.251Z,4.62
2019-06-01T11:38:25.983Z,4.40
2019-06-01T11:40:54.688Z,4.58
2019-06-01T11:43:23.444Z,4.40
2019-06-01T11:45:52.147Z,4.42
2019-06-01T11:48:20.843Z,4.35
2019-06-01T11:50:49.548Z,4.83
2019-06-01T11:53:18.250Z,4.33
2019-06-01T11:55:46.955Z,4.95
2019-06-01T11:58:15.703Z,4.58
2019-06-01T12:00:45.841Z,5.15
2019-06-01T12:03:14.612Z,4.60
2019-06-01T12:05:44.117Z,4.62
2019-06-01T12:08:12.948Z,4.72
2019-06-01T12:10:41.651Z,4.45
2019-06-01T12:13:10.351Z,4.50
2019-06-01T12:15:40.188Z,4.70
2019-06-01T12:18:09.060Z,4.50
2019-06-01T12:20:38.631Z,4.45
2019-06-01T12:23:07.464Z,5.00
2019-06-01T12:25:36.167Z,4.95
2019-06-01T12:28:04.875Z,4.37
2019-06-01T12:30:33.579Z,4.90
2019-06-01T12:33:02.327Z,4.33
2019-06-01T12:35:31.001Z,4.95
2019-06-01T12:38:06.491Z,4.53
2019-06-01T12:40:30.060Z,4.65
2019-06-01T12:42:58.759Z,4.10
2019-06-01T12:45:27.465Z,4.05
2019-06-01T12:47:58.616Z,4.22
2019-06-01T12:50:26.519Z,4.25
2019-06-01T12:52:55.219Z,3.92
2019-06-01T12:55:23.947Z,4.03
2019-06-01T12:57:52.623Z,3.70
2019-06-01T13:00:21.784Z,3.70
2019-06-01T13:03:01.150Z,3.60
2019-06-01T13:05:20.833Z,3.25
2019-06-01T13:07:58.500Z,3.22
2019-06-01T13:10:19.969Z,3.85
2019-06-01T13:12:49.424Z,3.08
2019-06-01T13:15:18.868Z,2.85
2019-06-01T13:17:47.567Z,2.83
2019-06-01T13:20:16.365Z,3.10
2019-06-01T13:22:45.599Z,2.80
2019-06-01T13:25:15.120Z,2.60
2019-06-01T13:27:44.250Z,2.90
2019-06-01T13:30:13.163Z,2.90
2019-06-01T13:32:42.547Z,2.62
2019-06-01T13:35:11.420Z,3.10
2019-06-01T13:37:40.090Z,2.83
2019-06-01T13:40:08.797Z,3.20
2019-06-01T13:42:37.491Z,2.77
2019-06-01T13:45:07.940Z,3.98
2019-06-01T13:47:36.701Z,3.42
2019-06-01T13:50:07.259Z,3.08
2019-06-01T13:52:36.099Z,3.00
2019-06-01T13:55:06.802Z,2.92
2019-06-01T13:57:39.320Z,2.92
2019-06-01T14:00:09.109Z,2.75
2019-06-01T14:02:37.793Z,2.67
2019-06-01T14:05:08.401Z,3.10
2019-06-01T14:07:37.091Z,2.90
2019-06-01T14:10:06.791Z,3.20
2019-06-01T14:12:35.491Z,2.77
2019-06-01T14:15:08.575Z,2.52
2019-06-01T14:17:37.284Z,2.50
2019-06-01T14:20:07.116Z,2.98
2019-06-01T14:22:35.815Z,2.50
2019-06-01T14:25:13.402Z,3.12
2019-06-01T14:27:36.928Z,3.35
2019-06-01T14:30:06.430Z,3.05
2019-06-01T14:32:35.139Z,2.83
2019-06-01T14:35:08.216Z,3.08
2019-06-01T14:37:37.268Z,3.30
2019-06-01T14:40:07.163Z,2.87
2019-06-01T14:42:35.959Z,3.27
2019-06-01T14:45:09.252Z,2.80
2019-06-01T14:47:37.944Z,3.42
2019-06-01T14:50:08.120Z,3.52
2019-06-01T14:52:36.915Z,2.77
2019-06-01T14:55:07.030Z,3.25
2019-06-01T14:57:35.707Z,2.92
2019-06-01T15:00:10.779Z,3.05
2019-06-01T15:02:39.467Z,3.15
2019-06-01T15:05:08.869Z,3.30
2019-06-01T15:07:37.671Z,2.50
2019-06-01T15:10:09.937Z,2.58
2019-06-01T15:12:38.642Z,2.85
2019-06-01T15:15:08.231Z,2.65
2019-06-01T15:17:36.941Z,2.80
2019-06-01T15:20:08.112Z,2.62
2019-06-01T15:22:37.011Z,2.42
2019-06-01T15:25:07.287Z,2.33
2019-06-01T15:27:35.987Z,2.60
2019-06-01T15:30:07.562Z,2.42
2019-06-01T15:32:36.265Z,2.50
2019-06-01T15:35:06.839Z,2.37
2019-06-01T15:37:35.559Z,2.00
2019-06-01T15:40:08.390Z,1.55
2019-06-01T15:42:37.083Z,2.55
2019-06-01T15:45:09.370Z,1.87
2019-06-01T15:47:38.072Z,1.70
2019-06-01T15:50:07.638Z,1.60
2019-06-01T15:52:36.336Z,1.27
2019-06-01T15:55:08.791Z,1.22
2019-06-01T15:57:37.498Z,1.37
2019-06-01T16:00:08.069Z,1.25
2019-06-01T16:02:36.764Z,0.90
2019-06-01T16:05:08.639Z,1.40
2019-06-01T16:07:37.348Z,1.30
2019-06-01T16:10:08.329Z,1.20
2019-06-01T16:12:37.338Z,1.30
2019-06-01T16:15:09.659Z,1.10
2019-06-01T16:17:38.351Z,1.20
2019-06-01T16:20:08.941Z,1.05
2019-06-01T16:22:37.621Z,1.10
2019-06-01T16:25:07.615Z,1.10
2019-06-01T16:27:36.322Z,1.22
2019-06-01T16:30:07.085Z,1.30
2019-06-01T16:32:39.234Z,1.17
2019-06-01T16:35:06.931Z,1.20
2019-06-01T16:37:35.636Z,1.20
2019-06-01T16:40:10.556Z,1.07
2019-06-01T16:42:39.276Z,1.20
2019-06-01T16:45:09.175Z,1.10
2019-06-01T16:47:37.870Z,0.90
2019-06-01T16:50:10.075Z,1.30
2019-06-01T16:52:39.002Z,1.10
2019-06-01T16:55:09.283Z,1.22
2019-06-01T16:57:37.979Z,1.22
2019-06-01T17:00:08.751Z,1.02
2019-06-01T17:02:37.686Z,1.20
2019-06-01T17:05:07.122Z,1.20
2019-06-01T17:07:35.886Z,1.30
2019-06-01T17:10:22.643Z,2.33
2019-06-01T17:12:43.007Z,2.02
2019-06-01T17:15:09.065Z,2.02
2019-06-01T17:17:37.768Z,6.67
2019-06-01T17:20:32.047Z,5.83
2019-06-01T17:23:02.921Z,2.15
2019-06-01T17:25:31.087Z,1.60
2019-06-01T17:28:00.115Z,1.67
2019-06-01T17:30:28.963Z,1.40
2019-06-01T17:32:58.183Z,1.82
2019-06-01T17:35:26.972Z,1.20
2019-06-01T17:37:55.663Z,1.40
2019-06-01T17:40:36.561Z,1.22
2019-06-01T17:42:54.899Z,1.47
2019-06-01T17:45:23.599Z,1.30
2019-06-01T17:47:52.299Z,1.85
2019-06-01T17:50:22.273Z,1.57
2019-06-01T17:52:50.970Z,1.77
2019-06-01T17:55:31.715Z,1.95
2019-06-01T17:58:01.567Z,1.90
2019-06-01T18:00:30.864Z,1.62
2019-06-01T18:02:59.556Z,1.92
2019-06-01T18:05:28.256Z,2.00
2019-06-01T18:07:56.959Z,1.80
2019-06-01T18:10:26.461Z,2.27
2019-06-01T18:12:55.167Z,2.20
2019-06-01T18:15:23.860Z,2.12
2019-06-01T18:17:52.572Z,2.00
2019-06-01T18:20:21.407Z,2.60
2019-06-01T18:22:50.236Z,2.57
2019-06-01T18:25:21.501Z,2.70
2019-06-01T18:27:50.296Z,2.10
2019-06-01T18:30:21.606Z,2.60
2019-06-01T18:32:51.001Z,2.47
2019-06-01T18:35:19.886Z,2.60
2019-06-01T18:37:48.605Z,2.97
2019-06-01T18:40:20.248Z,2.60
2019-06-01T18:42:50.251Z,2.87
2019-06-01T18:45:19.756Z,2.75
2019-06-01T18:47:48.647Z,2.40
2019-06-01T18:50:18.158Z,2.70
2019-06-01T18:52:46.855Z,2.80
2019-06-01T18:55:15.761Z,2.87
2019-06-01T18:57:47.391Z,2.70
2019-06-01T19:00:16.395Z,2.60
2019-06-01T19:02:45.248Z,2.90
2019-06-01T19:05:15.441Z,2.33
2019-06-01T19:07:44.247Z,3.03
2019-06-01T19:10:15.732Z,2.20
2019-06-01T19:12:44.552Z,2.50
2019-06-01T19:15:26.663Z,2.57
2019-06-01T19:17:45.607Z,2.63
2019-06-01T19:20:15.304Z,2.30
2019-06-01T19:22:44.107Z,2.40
2019-06-01T19:25:32.080Z,2.47
2019-06-01T19:28:00.788Z,2.47
2019-06-01T19:30:38.095Z,2.43
2019-06-01T19:33:11.019Z,2.73
2019-06-01T19:35:38.949Z,1.90
2019-06-01T19:38:08.952Z,2.30
2019-06-01T19:40:39.759Z,2.17
2019-06-01T19:43:11.385Z,2.00
2019-06-01T19:45:40.266Z,1.80
2019-06-01T19:48:10.103Z,2.30
2019-06-01T19:50:39.011Z,1.90
2019-06-01T19:53:08.688Z,1.90
2019-06-01T19:55:37.609Z,1.73
2019-06-01T19:58:06.309Z,2.20
2019-06-01T20:00:35.010Z,2.10
2019-06-01T20:03:03.807Z,2.17
2019-06-01T20:05:32.508Z,2.20
2019-06-01T20:08:01.211Z,2.13
2019-06-01T20:10:29.912Z,2.20
2019-06-01T20:12:58.614Z,2.27
2019-06-01T20:15:27.315Z,2.00
2019-06-01T20:17:56.041Z,2.47
2019-06-01T20:20:24.729Z,2.40
2019-06-01T20:22:53.435Z,1.90
2019-06-01T20:25:22.119Z,2.17
2019-06-01T20:27:50.812Z,1.83
2019-06-01T20:30:22.065Z,2.30
2019-06-01T20:32:51.001Z,2.23
2019-06-01T20:35:20.131Z,2.13
2019-06-01T20:37:48.901Z,2.30
2019-06-01T20:40:18.461Z,2.33
2019-06-01T20:42:47.186Z,2.23
2019-06-01T20:45:16.731Z,2.17
2019-06-01T20:47:45.592Z,2.10
2019-06-01T20:50:14.888Z,2.20
2019-06-01T20:52:43.583Z,2.10
2019-06-01T20:55:12.899Z,2.30
2019-06-01T20:57:41.595Z,2.20
2019-06-01T21:00:10.844Z,2.23
2019-06-01T21:02:39.539Z,2.23
2019-06-01T21:05:08.581Z,2.30
2019-06-01T21:07:37.282Z,2.33
2019-06-01T21:10:06.970Z,2.10
2019-06-01T21:12:44.696Z,2.07
2019-06-01T21:15:07.916Z,2.27
2019-06-01T21:17:36.623Z,2.30
2019-06-01T21:20:09.416Z,2.37
2019-06-01T21:22:38.572Z,2.20
2019-06-01T21:25:07.570Z,2.17
2019-06-01T21:27:36.374Z,2.07
2019-06-01T21:30:06.939Z,2.20
2019-06-01T21:32:35.632Z,2.40
2019-06-01T21:35:05.044Z,2.90
2019-06-01T21:37:33.735Z,2.23
2019-06-01T21:40:02.443Z,3.00
2019-06-01T21:42:31.135Z,2.67
2019-06-01T21:44:59.850Z,2.30
2019-06-01T21:47:28.540Z,1.90
2019-06-01T21:49:57.239Z,2.50
2019-06-01T21:52:26.343Z,2.33
2019-06-01T21:54:55.195Z,2.43
2019-06-01T21:57:24.607Z,2.30
2019-06-01T21:59:53.403Z,2.43
2019-06-01T22:02:23.052Z,2.17
2019-06-01T22:04:52.045Z,2.57
2019-06-01T22:07:21.256Z,2.27
2019-06-01T22:09:49.999Z,2.80
2019-06-01T22:12:19.198Z,2.40
2019-06-01T22:14:48.091Z,2.37
2019-06-01T22:17:17.495Z,3.23
2019-06-01T22:19:46.300Z,2.47
2019-06-01T22:22:15.004Z,2.27
2019-06-01T22:24:43.707Z,2.43
2019-06-01T22:27:12.407Z,2.70
2019-06-01T22:29:41.111Z,3.87
2019-06-01T22:32:09.809Z,2.90
2019-06-01T22:34:38.518Z,2.30
2019-06-01T22:37:07.212Z,3.03
2019-06-01T22:39:35.919Z,2.57
2019-06-01T22:42:05.218Z,2.80
2019-06-01T22:44:33.930Z,2.97
2019-06-01T22:47:02.704Z,2.70
2019-06-01T22:49:31.383Z,2.50
2019-06-01T22:52:00.087Z,2.60
2019-06-01T22:54:29.368Z,2.73
2019-06-01T22:56:58.091Z,2.43
2019-06-01T22:59:26.835Z,3.13
2019-06-01T23:01:55.530Z,2.90
2019-06-01T23:04:25.037Z,2.80
2019-06-01T23:06:53.833Z,2.27
2019-06-01T23:09:23.031Z,2.27
2019-06-01T23:11:51.807Z,2.37
2019-06-01T23:14:21.343Z,2.60
2019-06-01T23:16:50.100Z,3.20
2019-06-01T23:19:19.108Z,2.93
2019-06-01T23:21:47.736Z,3.10
2019-06-01T23:24:16.440Z,2.70
2019-06-01T23:26:45.147Z,2.90
2019-06-01T23:29:13.852Z,2.60
2019-06-01T23:31:42.553Z,2.60
2019-06-01T23:34:11.255Z,2.93
2019-06-01T23:36:39.959Z,3.70
2019-06-01T23:39:08.770Z,2.80
2019-06-01T23:41:37.477Z,2.37
2019-06-01T23:44:11.636Z,2.70
2019-06-01T23:46:36.530Z,2.60
2019-06-01T23:49:05.229Z,2.97
2019-06-01T23:51:34.029Z,2.77
2019-06-01T23:54:02.742Z,2.83
2019-06-01T23:56:31.981Z,2.97
2019-06-01T23:59:00.739Z,2.60
